x

Buoy E01 - Central Maine Shelf (44032) Weather Station

12:04 - Thu 18th Sep 2014 All times are EDT. -4 hours from GMT.

  • Wind
    4mph, 7mph gusts
  • Sea Temp 58°f
  • Ar Temp 59°f
  • Sea Pressure 1012.9mb
  • Buoy E01 - Central Maine Shelf
  • Buoy E01 - Central Maine Shelf

More Historic Weather Station data

Upgrade to MSW Pro to gain access to the past 30 days of data for over 8000 Wavebouys and Weather Stations around the globe.

Join Pro

Comparision Forecast

View Surf forecast
   
Qui 09/18 12:04  -   -  4 7 mph 1012.9mb 58f 59f
Qua 09/17 11:04  -   -  4 7 mph 1013.2mb 58f 59f
10:04 4.5ft 16s 7 9 mph 1013.5mb 59f 60f
9:04 0.7ft  -  9
mph
1013.8mb 59f 60f
8:04 4ft 16s 4 7 mph 1013.9mb 59f 60f
7:04 2.5ft 11s 4
mph
1013.3mb 59f 60f
6:04 3.5ft 16s 7
mph
1013.1mb 60f 62f
5:04 3.5ft 16s 7 9 mph 1013.1mb 60f 62f
4:04 4ft 16s 4 7 mph 1013.4mb 61f 62f
3:04 3.5ft 16s 4
mph
1013.6mb 62f 61f
2:04 0.3ft  -  2 4 mph 1014.3mb 60f 61f
1:04 0.3ft  -  4
mph
1014.8mb 60f 60f
12:04  -   -  2 4 mph 1015.1mb 58f 60f
10:04 0.7ft  -   -  2 mph 1015.4mb 58f 61f
9:04  -   -   -  2 mph 1015.2mb 58f 60f
8:04  -   -  2 4 mph 1014.9mb 58f 58f
7:04 3ft 16s 2 4 mph 1014.6mb 58f 58f
6:04 1ft 6s 9
mph
1014.1mb 58f 57f
5:04 0.7ft  -  4
mph
1013.8mb 58f 58f
4:04 0.7ft  -  4 7 mph 1013.7mb 58f 58f
2:04 1ft 6s 9 11 mph 1014mb 58f 58f
1:04 1ft 3s 7 9 mph 1014.3mb 58f 58f
12:04 1ft 3s 9 11 mph 1014.1mb 58f 59f
Ter 09/16 11:04 1ft 3s 7 9 mph 1014.1mb 58f 59f
10:04 1ft 3s 9
mph
1014.1mb 58f 59f
8:04 0.7ft  -  7 9 mph 1013.5mb 58f 58f
7:04 1.6ft 11s 7
mph
1013.2mb 58f 59f
6:04 1ft 6s 4
mph
1013.1mb 58f 60f
5:04 1ft 6s 4 7 mph 1013.2mb 58f 58f
4:04 1.3ft 6s 4 7 mph 1013.5mb 58f 58f
3:04 1.3ft 8s 7
mph
1013.6mb 58f 58f
2:04 1.3ft 8s 4
mph
1014.1mb 59f 58f
1:04 0.7ft  -  2
mph
1014.8mb 59f 58f
12:04 1.3ft 8s 4
mph
1015.6mb 58f 58f
11:04 1.6ft 8s 4
mph
1015.7mb 58f 57f
10:04 1.3ft 4s 7
mph
1016.3mb 58f 57f
9:04 1.3ft 4s 7 9 mph 1016.4mb 58f 56f
8:04 1.3ft 3s 7 9 mph 1016.5mb 58f 57f
7:04 2ft 8s 7 9 mph 1016.8mb 58f 58f
6:04 2ft 8s 11
mph
1016.7mb 58f 59f
5:04 2ft 6s 9 11 mph 1016.3mb 57f 59f
4:04 1.3ft 4s 9 11 mph 1016.4mb 58f 59f
3:04 1.3ft 3s 11 13 mph 1017.5mb 58f 59f
2:04 1ft 3s 11 13 mph 1018.3mb 57f 59f
1:04 1ft 3s 9 11 mph 1018.5mb 57f 59f
12:04 1ft 3s 9
mph
1018.2mb 57f 59f
Seg 09/15 11:04 1ft 3s 9
mph
1018.6mb 57f 59f
10:04 1ft 3s 9
mph
1018.9mb 57f 59f
9:04 0.7ft  -  9 11 mph 1019.4mb 58f 59f
7:04 1.3ft 8s 9 11 mph 1019mb 58f 58f
6:04 0.7ft  -  9 11 mph 1019.1mb 59f 58f
5:04 1ft 8s 9 11 mph 1019.1mb 59f 56f
4:04 0.3ft  -  9 11 mph 1019.6mb 59f 56f
3:04 1.3ft 8s 7 9 mph 1019.8mb 60f 55f
2:04 1.3ft 6s 4 9 mph 1020.5mb 60f 55f
1:04 1.3ft 6s 4 7 mph 1021.2mb 60f 54f
12:04 1.6ft 6s 2 4 mph 1021.9mb 59f 54f
11:04 1.6ft 3s 4 7 mph 1022.5mb 59f 53f
10:04 1.3ft 3s 9 11 mph 1022.8mb 57f 52f
9:04 1.3ft 8s 9 11 mph 1022.8mb 57f 52f
8:04 1ft 3s 7 9 mph - 57f 53f
6:04 2ft 8s 11 13 mph 1023mb 57f 52f
5:04 2.5ft 8s 9 11 mph 1022.4mb 57f 53f
4:04 1.6ft 4s 11 13 mph 1021.9mb 57f 53f
3:04 2ft 4s 11 13 mph 1021.9mb 57f 53f
2:04 2.5ft 4s 16 18 mph 1022.1mb 57f 53f
1:04 3ft 8s 16 18 mph 1022.5mb 57f 53f
12:04 2.5ft 4s 18 20 mph 1022.4mb 57f 54f
Dom 09/14 11:04 3ft 4s 20 22 mph 1022.4mb 57f 55f
10:04 2.5ft 4s 18 20 mph 1022.4mb 57f 55f
9:04 1.6ft 3s 18 20 mph 1022.1mb 58f 56f
8:04 1.3ft 6s 13 16 mph 1021.7mb 58f 58f
7:04 1.3ft 6s 11 13 mph 1021.2mb 58f 59f
6:04 1.3ft 6s 7 9 mph 1021mb 58f 60f
5:04 1.6ft 6s 4 7 mph 1020.8mb 58f 60f
4:04  -   -  9 11 mph 1020.4mb - 59f
3:04 2ft 3s 11 13 mph 1020.1mb 58f 58f
2:04 2ft 3s 11 13 mph 1020.5mb 58f 57f
1:04 2.5ft 4s 13 16 mph 1020.9mb 58f 56f
12:04 2.5ft 3s 16 18 mph 1021mb 58f 55f
11:04 2.5ft 4s 18 22 mph 1021.2mb 58f 54f
10:04 3ft 4s 20 22 mph 1021.5mb 58f 54f
9:04 3.5ft 4s 22 25 mph 1021.4mb 58f 54f
8:04 3ft 4s 18 22 mph 1021mb 58f 54f
7:04 3ft 5s 18 22 mph 1020.2mb 58f 55f
6:04 3.5ft 6s 18 22 mph 1019.1mb 58f 56f